sensor_id;sensor_type;location;lat;lon;timestamp;P1;durP1;ratioP1;P2;durP2;ratioP2
28551;SDS011;15752;49.560;8.708;2022-12-29T00:01:19;3.60;;;1.27;;
28551;SDS011;15752;49.560;8.708;2022-12-29T00:03:49;1.30;;;1.10;;
28551;SDS011;15752;49.560;8.708;2022-12-29T00:06:19;3.70;;;1.50;;
28551;SDS011;15752;49.560;8.708;2022-12-29T00:08:48;2.23;;;1.20;;
28551;SDS011;15752;49.560;8.708;2022-12-29T00:11:17;3.63;;;1.43;;
28551;SDS011;15752;49.560;8.708;2022-12-29T00:13:47;1.97;;;1.30;;
28551;SDS011;15752;49.560;8.708;2022-12-29T00:16:51;2.27;;;1.50;;
28551;SDS011;15752;49.560;8.708;2022-12-29T00:19:19;2.37;;;1.20;;
28551;SDS011;15752;49.560;8.708;2022-12-29T00:22:08;1.63;;;1.20;;
28551;SDS011;15752;49.560;8.708;2022-12-29T00:24:54;2.60;;;1.30;;
28551;SDS011;15752;49.560;8.708;2022-12-29T00:27:40;1.83;;;1.20;;
28551;SDS011;15752;49.560;8.708;2022-12-29T00:30:33;1.83;;;1.00;;
28551;SDS011;15752;49.560;8.708;2022-12-29T00:33:21;1.77;;;1.27;;
28551;SDS011;15752;49.560;8.708;2022-12-29T00:36:12;2.63;;;1.47;;
28551;SDS011;15752;49.560;8.708;2022-12-29T00:38:46;1.77;;;1.10;;
28551;SDS011;15752;49.560;8.708;2022-12-29T00:41:37;1.90;;;1.10;;
28551;SDS011;15752;49.560;8.708;2022-12-29T00:44:23;3.50;;;1.40;;
28551;SDS011;15752;49.560;8.708;2022-12-29T00:46:51;1.27;;;1.00;;
28551;SDS011;15752;49.560;8.708;2022-12-29T00:49:20;1.67;;;1.30;;
28551;SDS011;15752;49.560;8.708;2022-12-29T00:51:57;2.17;;;1.30;;
28551;SDS011;15752;49.560;8.708;2022-12-29T00:54:29;1.40;;;1.10;;
28551;SDS011;15752;49.560;8.708;2022-12-29T00:57:00;1.77;;;1.20;;
28551;SDS011;15752;49.560;8.708;2022-12-29T00:59:30;3.20;;;1.30;;
28551;SDS011;15752;49.560;8.708;2022-12-29T01:01:59;2.40;;;1.23;;
28551;SDS011;15752;49.560;8.708;2022-12-29T01:04:28;1.57;;;1.10;;
28551;SDS011;15752;49.560;8.708;2022-12-29T01:06:56;2.63;;;1.47;;
28551;SDS011;15752;49.560;8.708;2022-12-29T01:09:24;1.80;;;1.33;;
28551;SDS011;15752;49.560;8.708;2022-12-29T01:12:12;3.50;;;1.60;;
28551;SDS011;15752;49.560;8.708;2022-12-29T01:14:40;3.43;;;1.57;;
28551;SDS011;15752;49.560;8.708;2022-12-29T01:17:09;3.43;;;1.80;;
28551;SDS011;15752;49.560;8.708;2022-12-29T01:19:37;2.17;;;1.50;;
28551;SDS011;15752;49.560;8.708;2022-12-29T01:22:06;4.03;;;1.80;;
28551;SDS011;15752;49.560;8.708;2022-12-29T01:24:34;3.03;;;1.50;;
28551;SDS011;15752;49.560;8.708;2022-12-29T01:30:16;2.77;;;1.30;;
28551;SDS011;15752;49.560;8.708;2022-12-29T01:32:45;2.10;;;1.40;;
28551;SDS011;15752;49.560;8.708;2022-12-29T01:35:13;2.83;;;1.40;;
28551;SDS011;15752;49.560;8.708;2022-12-29T01:37:43;1.40;;;1.30;;
28551;SDS011;15752;49.560;8.708;2022-12-29T01:40:11;2.27;;;1.50;;
28551;SDS011;15752;49.560;8.708;2022-12-29T01:42:40;2.40;;;1.40;;
28551;SDS011;15752;49.560;8.708;2022-12-29T01:45:11;3.30;;;1.80;;
28551;SDS011;15752;49.560;8.708;2022-12-29T01:47:44;2.30;;;1.20;;
28551;SDS011;15752;49.560;8.708;2022-12-29T01:50:16;2.13;;;1.30;;
28551;SDS011;15752;49.560;8.708;2022-12-29T01:52:54;1.60;;;1.00;;
28551;SDS011;15752;49.560;8.708;2022-12-29T01:55:27;2.53;;;1.20;;
28551;SDS011;15752;49.560;8.708;2022-12-29T01:58:02;1.80;;;1.23;;
28551;SDS011;15752;49.560;8.708;2022-12-29T02:00:35;1.40;;;1.00;;
28551;SDS011;15752;49.560;8.708;2022-12-29T02:03:04;2.20;;;1.10;;
28551;SDS011;15752;49.560;8.708;2022-12-29T02:05:36;1.77;;;1.20;;
28551;SDS011;15752;49.560;8.708;2022-12-29T02:08:11;2.27;;;1.10;;
28551;SDS011;15752;49.560;8.708;2022-12-29T02:10:41;2.63;;;1.17;;
28551;SDS011;15752;49.560;8.708;2022-12-29T02:13:14;1.43;;;0.90;;
28551;SDS011;15752;49.560;8.708;2022-12-29T02:15:47;1.33;;;1.03;;
28551;SDS011;15752;49.560;8.708;2022-12-29T02:18:32;2.00;;;0.90;;
28551;SDS011;15752;49.560;8.708;2022-12-29T02:28:04;2.10;;;1.00;;
28551;SDS011;15752;49.560;8.708;2022-12-29T02:31:09;1.83;;;1.00;;
28551;SDS011;15752;49.560;8.708;2022-12-29T02:33:50;1.23;;;0.73;;
28551;SDS011;15752;49.560;8.708;2022-12-29T02:36:33;1.27;;;0.80;;
28551;SDS011;15752;49.560;8.708;2022-12-29T02:39:12;1.80;;;1.00;;
28551;SDS011;15752;49.560;8.708;2022-12-29T02:41:53;0.93;;;0.80;;
28551;SDS011;15752;49.560;8.708;2022-12-29T02:44:34;1.30;;;0.90;;
28551;SDS011;15752;49.560;8.708;2022-12-29T02:47:15;1.97;;;0.67;;
28551;SDS011;15752;49.560;8.708;2022-12-29T02:49:53;1.60;;;0.90;;
28551;SDS011;15752;49.560;8.708;2022-12-29T02:52:33;3.87;;;1.37;;
28551;SDS011;15752;49.560;8.708;2022-12-29T02:55:06;1.97;;;0.90;;
28551;SDS011;15752;49.560;8.708;2022-12-29T02:57:36;1.93;;;1.00;;
28551;SDS011;15752;49.560;8.708;2022-12-29T03:00:06;2.87;;;1.30;;
28551;SDS011;15752;49.560;8.708;2022-12-29T03:02:43;2.13;;;1.10;;
28551;SDS011;15752;49.560;8.708;2022-12-29T03:08:40;2.23;;;1.10;;
28551;SDS011;15752;49.560;8.708;2022-12-29T03:11:16;1.63;;;0.90;;
28551;SDS011;15752;49.560;8.708;2022-12-29T03:14:04;1.37;;;0.67;;
28551;SDS011;15752;49.560;8.708;2022-12-29T03:16:57;3.43;;;1.70;;
28551;SDS011;15752;49.560;8.708;2022-12-29T03:19:32;2.00;;;0.80;;
28551;SDS011;15752;49.560;8.708;2022-12-29T03:22:08;2.53;;;1.27;;
28551;SDS011;15752;49.560;8.708;2022-12-29T03:25:05;2.30;;;0.80;;
28551;SDS011;15752;49.560;8.708;2022-12-29T03:27:41;1.13;;;0.70;;
28551;SDS011;15752;49.560;8.708;2022-12-29T03:30:14;1.67;;;0.83;;
28551;SDS011;15752;49.560;8.708;2022-12-29T03:32:44;1.73;;;0.80;;
28551;SDS011;15752;49.560;8.708;2022-12-29T03:35:19;1.57;;;0.90;;
28551;SDS011;15752;49.560;8.708;2022-12-29T03:37:54;1.60;;;0.80;;
28551;SDS011;15752;49.560;8.708;2022-12-29T03:40:33;3.17;;;1.00;;
28551;SDS011;15752;49.560;8.708;2022-12-29T03:43:02;4.60;;;1.57;;
28551;SDS011;15752;49.560;8.708;2022-12-29T03:45:34;1.20;;;0.77;;
28551;SDS011;15752;49.560;8.708;2022-12-29T03:48:03;2.00;;;0.90;;
28551;SDS011;15752;49.560;8.708;2022-12-29T03:50:37;2.33;;;1.07;;
28551;SDS011;15752;49.560;8.708;2022-12-29T03:53:06;1.03;;;0.80;;
28551;SDS011;15752;49.560;8.708;2022-12-29T03:55:34;2.23;;;1.00;;
28551;SDS011;15752;49.560;8.708;2022-12-29T03:58:03;1.40;;;0.90;;
28551;SDS011;15752;49.560;8.708;2022-12-29T04:00:52;2.90;;;1.30;;
28551;SDS011;15752;49.560;8.708;2022-12-29T04:03:21;1.53;;;0.90;;
28551;SDS011;15752;49.560;8.708;2022-12-29T04:05:51;1.00;;;0.80;;
28551;SDS011;15752;49.560;8.708;2022-12-29T04:08:20;1.63;;;0.87;;
28551;SDS011;15752;49.560;8.708;2022-12-29T04:10:48;2.23;;;0.80;;
28551;SDS011;15752;49.560;8.708;2022-12-29T04:13:20;2.13;;;0.90;;
28551;SDS011;15752;49.560;8.708;2022-12-29T04:15:50;1.63;;;1.10;;
28551;SDS011;15752;49.560;8.708;2022-12-29T04:18:19;1.10;;;0.83;;
28551;SDS011;15752;49.560;8.708;2022-12-29T04:20:48;3.77;;;1.00;;
28551;SDS011;15752;49.560;8.708;2022-12-29T04:23:33;1.60;;;0.90;;
28551;SDS011;15752;49.560;8.708;2022-12-29T04:26:06;2.43;;;1.07;;
28551;SDS011;15752;49.560;8.708;2022-12-29T04:28:58;4.17;;;1.10;;
28551;SDS011;15752;49.560;8.708;2022-12-29T04:31:47;1.40;;;0.80;;
28551;SDS011;15752;49.560;8.708;2022-12-29T04:34:17;1.73;;;0.90;;
28551;SDS011;15752;49.560;8.708;2022-12-29T04:36:46;1.50;;;0.83;;
28551;SDS011;15752;49.560;8.708;2022-12-29T04:39:17;1.57;;;0.80;;
28551;SDS011;15752;49.560;8.708;2022-12-29T04:41:47;2.07;;;0.80;;
28551;SDS011;15752;49.560;8.708;2022-12-29T04:44:18;0.87;;;0.80;;
28551;SDS011;15752;49.560;8.708;2022-12-29T04:47:25;1.20;;;0.70;;
28551;SDS011;15752;49.560;8.708;2022-12-29T04:50:12;1.33;;;0.70;;
28551;SDS011;15752;49.560;8.708;2022-12-29T04:52:52;3.53;;;0.70;;
28551;SDS011;15752;49.560;8.708;2022-12-29T04:55:22;1.13;;;0.63;;
28551;SDS011;15752;49.560;8.708;2022-12-29T04:57:51;1.47;;;1.37;;
28551;SDS011;15752;49.560;8.708;2022-12-29T05:00:19;1.17;;;0.70;;
28551;SDS011;15752;49.560;8.708;2022-12-29T05:02:48;1.50;;;0.97;;
28551;SDS011;15752;49.560;8.708;2022-12-29T05:05:17;1.43;;;0.70;;
28551;SDS011;15752;49.560;8.708;2022-12-29T05:07:49;0.93;;;0.70;;
28551;SDS011;15752;49.560;8.708;2022-12-29T05:10:17;1.10;;;0.77;;
28551;SDS011;15752;49.560;8.708;2022-12-29T05:12:49;1.90;;;0.83;;
28551;SDS011;15752;49.560;8.708;2022-12-29T05:15:18;1.70;;;0.83;;
28551;SDS011;15752;49.560;8.708;2022-12-29T05:17:46;1.30;;;0.87;;
28551;SDS011;15752;49.560;8.708;2022-12-29T05:20:15;1.00;;;0.70;;
28551;SDS011;15752;49.560;8.708;2022-12-29T05:22:43;2.60;;;0.70;;
28551;SDS011;15752;49.560;8.708;2022-12-29T05:25:13;1.40;;;0.70;;
28551;SDS011;15752;49.560;8.708;2022-12-29T05:27:57;0.90;;;0.60;;
28551;SDS011;15752;49.560;8.708;2022-12-29T05:30:57;0.87;;;0.63;;
28551;SDS011;15752;49.560;8.708;2022-12-29T05:33:26;1.60;;;0.73;;
28551;SDS011;15752;49.560;8.708;2022-12-29T05:35:54;2.90;;;0.80;;
28551;SDS011;15752;49.560;8.708;2022-12-29T05:38:23;2.77;;;0.70;;
28551;SDS011;15752;49.560;8.708;2022-12-29T05:40:51;2.80;;;1.03;;
28551;SDS011;15752;49.560;8.708;2022-12-29T05:43:39;1.30;;;1.20;;
28551;SDS011;15752;49.560;8.708;2022-12-29T05:46:27;1.50;;;1.20;;
28551;SDS011;15752;49.560;8.708;2022-12-29T05:49:04;1.10;;;0.90;;
28551;SDS011;15752;49.560;8.708;2022-12-29T05:51:41;1.33;;;0.90;;
28551;SDS011;15752;49.560;8.708;2022-12-29T05:54:09;2.67;;;1.30;;
28551;SDS011;15752;49.560;8.708;2022-12-29T05:56:38;2.93;;;1.20;;
28551;SDS011;15752;49.560;8.708;2022-12-29T05:59:09;0.90;;;0.73;;
28551;SDS011;15752;49.560;8.708;2022-12-29T06:01:37;1.17;;;1.07;;
28551;SDS011;15752;49.560;8.708;2022-12-29T06:04:06;3.23;;;2.20;;
28551;SDS011;15752;49.560;8.708;2022-12-29T06:06:35;3.63;;;3.13;;
28551;SDS011;15752;49.560;8.708;2022-12-29T06:09:03;1.77;;;1.43;;
28551;SDS011;15752;49.560;8.708;2022-12-29T06:11:32;2.20;;;2.00;;
28551;SDS011;15752;49.560;8.708;2022-12-29T06:14:00;1.70;;;1.60;;
28551;SDS011;15752;49.560;8.708;2022-12-29T06:16:30;3.37;;;2.90;;
28551;SDS011;15752;49.560;8.708;2022-12-29T06:19:01;4.50;;;1.80;;
28551;SDS011;15752;49.560;8.708;2022-12-29T06:21:30;1.60;;;1.03;;
28551;SDS011;15752;49.560;8.708;2022-12-29T06:24:00;2.40;;;1.07;;
28551;SDS011;15752;49.560;8.708;2022-12-29T06:26:28;1.27;;;1.00;;
28551;SDS011;15752;49.560;8.708;2022-12-29T06:28:57;1.87;;;1.20;;
28551;SDS011;15752;49.560;8.708;2022-12-29T06:31:25;1.93;;;1.60;;
28551;SDS011;15752;49.560;8.708;2022-12-29T06:33:55;2.47;;;1.87;;
28551;SDS011;15752;49.560;8.708;2022-12-29T06:36:28;3.03;;;2.53;;
28551;SDS011;15752;49.560;8.708;2022-12-29T06:38:57;1.70;;;1.20;;
28551;SDS011;15752;49.560;8.708;2022-12-29T06:41:25;2.80;;;1.67;;
28551;SDS011;15752;49.560;8.708;2022-12-29T06:44:21;2.30;;;1.20;;
28551;SDS011;15752;49.560;8.708;2022-12-29T06:46:54;1.00;;;0.90;;
28551;SDS011;15752;49.560;8.708;2022-12-29T06:49:25;2.57;;;1.03;;
28551;SDS011;15752;49.560;8.708;2022-12-29T06:51:53;1.20;;;0.90;;
28551;SDS011;15752;49.560;8.708;2022-12-29T06:54:21;2.43;;;1.47;;
28551;SDS011;15752;49.560;8.708;2022-12-29T06:56:50;1.87;;;1.10;;
28551;SDS011;15752;49.560;8.708;2022-12-29T06:59:18;2.07;;;1.87;;
28551;SDS011;15752;49.560;8.708;2022-12-29T07:01:46;4.07;;;2.33;;
28551;SDS011;15752;49.560;8.708;2022-12-29T07:04:15;1.57;;;1.27;;
28551;SDS011;15752;49.560;8.708;2022-12-29T07:06:45;0.87;;;0.87;;
28551;SDS011;15752;49.560;8.708;2022-12-29T07:09:13;3.80;;;1.17;;
28551;SDS011;15752;49.560;8.708;2022-12-29T07:11:42;2.07;;;1.10;;
28551;SDS011;15752;49.560;8.708;2022-12-29T07:14:10;1.80;;;1.03;;
28551;SDS011;15752;49.560;8.708;2022-12-29T07:16:39;4.00;;;0.80;;
28551;SDS011;15752;49.560;8.708;2022-12-29T07:19:08;2.03;;;1.30;;
28551;SDS011;15752;49.560;8.708;2022-12-29T07:21:36;2.03;;;1.83;;
28551;SDS011;15752;49.560;8.708;2022-12-29T07:24:16;3.20;;;1.20;;
28551;SDS011;15752;49.560;8.708;2022-12-29T07:26:45;1.10;;;1.00;;
28551;SDS011;15752;49.560;8.708;2022-12-29T07:29:13;1.97;;;1.10;;
28551;SDS011;15752;49.560;8.708;2022-12-29T07:31:41;2.00;;;1.30;;
28551;SDS011;15752;49.560;8.708;2022-12-29T07:34:10;2.37;;;1.67;;
28551;SDS011;15752;49.560;8.708;2022-12-29T07:36:38;1.20;;;1.10;;
28551;SDS011;15752;49.560;8.708;2022-12-29T07:39:06;1.50;;;1.20;;
28551;SDS011;15752;49.560;8.708;2022-12-29T07:41:36;1.63;;;1.00;;
28551;SDS011;15752;49.560;8.708;2022-12-29T07:44:10;1.20;;;1.10;;
28551;SDS011;15752;49.560;8.708;2022-12-29T07:46:57;2.53;;;1.00;;
28551;SDS011;15752;49.560;8.708;2022-12-29T07:49:26;1.40;;;1.00;;
28551;SDS011;15752;49.560;8.708;2022-12-29T07:51:54;1.40;;;1.10;;
28551;SDS011;15752;49.560;8.708;2022-12-29T07:54:22;1.70;;;1.10;;
28551;SDS011;15752;49.560;8.708;2022-12-29T07:56:52;3.87;;;1.50;;
28551;SDS011;15752;49.560;8.708;2022-12-29T07:59:20;2.93;;;1.37;;
28551;SDS011;15752;49.560;8.708;2022-12-29T08:01:49;3.93;;;1.40;;
28551;SDS011;15752;49.560;8.708;2022-12-29T08:04:17;3.63;;;1.40;;
28551;SDS011;15752;49.560;8.708;2022-12-29T08:06:46;2.53;;;1.30;;
28551;SDS011;15752;49.560;8.708;2022-12-29T08:09:14;2.17;;;1.60;;
28551;SDS011;15752;49.560;8.708;2022-12-29T08:11:49;2.47;;;1.70;;
28551;SDS011;15752;49.560;8.708;2022-12-29T08:14:19;2.50;;;1.90;;
28551;SDS011;15752;49.560;8.708;2022-12-29T08:16:48;3.37;;;1.77;;
28551;SDS011;15752;49.560;8.708;2022-12-29T08:19:16;2.50;;;1.47;;
28551;SDS011;15752;49.560;8.708;2022-12-29T08:21:45;1.77;;;1.50;;
28551;SDS011;15752;49.560;8.708;2022-12-29T08:24:13;2.53;;;1.23;;
28551;SDS011;15752;49.560;8.708;2022-12-29T08:26:41;3.63;;;1.20;;
28551;SDS011;15752;49.560;8.708;2022-12-29T08:29:11;2.43;;;1.20;;
28551;SDS011;15752;49.560;8.708;2022-12-29T08:31:39;1.57;;;1.00;;
28551;SDS011;15752;49.560;8.708;2022-12-29T08:34:08;4.40;;;1.27;;
28551;SDS011;15752;49.560;8.708;2022-12-29T08:36:36;1.33;;;1.17;;
28551;SDS011;15752;49.560;8.708;2022-12-29T08:39:05;2.90;;;1.30;;
28551;SDS011;15752;49.560;8.708;2022-12-29T08:41:33;2.53;;;1.30;;
28551;SDS011;15752;49.560;8.708;2022-12-29T08:44:01;2.80;;;1.90;;
28551;SDS011;15752;49.560;8.708;2022-12-29T08:46:31;3.10;;;1.63;;
28551;SDS011;15752;49.560;8.708;2022-12-29T08:49:00;2.23;;;1.20;;
28551;SDS011;15752;49.560;8.708;2022-12-29T08:51:28;2.47;;;1.80;;
28551;SDS011;15752;49.560;8.708;2022-12-29T08:53:56;5.77;;;4.00;;
28551;SDS011;15752;49.560;8.708;2022-12-29T08:56:25;7.83;;;4.13;;
28551;SDS011;15752;49.560;8.708;2022-12-29T08:58:56;5.87;;;2.60;;
28551;SDS011;15752;49.560;8.708;2022-12-29T09:01:27;3.83;;;2.10;;
28551;SDS011;15752;49.560;8.708;2022-12-29T09:03:59;3.53;;;1.63;;
28551;SDS011;15752;49.560;8.708;2022-12-29T09:06:44;1.97;;;1.77;;
28551;SDS011;15752;49.560;8.708;2022-12-29T09:09:13;2.87;;;2.23;;
28551;SDS011;15752;49.560;8.708;2022-12-29T09:11:41;1.97;;;1.40;;
28551;SDS011;15752;49.560;8.708;2022-12-29T09:14:10;2.13;;;1.40;;
28551;SDS011;15752;49.560;8.708;2022-12-29T09:20:19;2.40;;;1.53;;
28551;SDS011;15752;49.560;8.708;2022-12-29T09:23:08;2.37;;;2.00;;
28551;SDS011;15752;49.560;8.708;2022-12-29T09:26:04;4.07;;;1.80;;
28551;SDS011;15752;49.560;8.708;2022-12-29T09:28:44;2.13;;;1.40;;
28551;SDS011;15752;49.560;8.708;2022-12-29T09:32:18;1.90;;;1.27;;
28551;SDS011;15752;49.560;8.708;2022-12-29T09:34:53;2.30;;;1.20;;
28551;SDS011;15752;49.560;8.708;2022-12-29T09:37:24;2.90;;;2.13;;
28551;SDS011;15752;49.560;8.708;2022-12-29T09:39:53;3.50;;;1.43;;
28551;SDS011;15752;49.560;8.708;2022-12-29T09:42:23;3.37;;;1.50;;
28551;SDS011;15752;49.560;8.708;2022-12-29T09:44:58;6.03;;;3.27;;
28551;SDS011;15752;49.560;8.708;2022-12-29T09:47:38;4.83;;;3.03;;
28551;SDS011;15752;49.560;8.708;2022-12-29T09:50:09;5.47;;;3.10;;
28551;SDS011;15752;49.560;8.708;2022-12-29T09:52:54;5.13;;;2.93;;
28551;SDS011;15752;49.560;8.708;2022-12-29T09:55:30;2.97;;;2.00;;
28551;SDS011;15752;49.560;8.708;2022-12-29T09:58:05;3.90;;;2.30;;
28551;SDS011;15752;49.560;8.708;2022-12-29T10:00:41;3.40;;;2.47;;
28551;SDS011;15752;49.560;8.708;2022-12-29T10:03:21;3.37;;;1.97;;
28551;SDS011;15752;49.560;8.708;2022-12-29T10:05:54;3.83;;;1.60;;
28551;SDS011;15752;49.560;8.708;2022-12-29T10:08:36;2.23;;;1.10;;
28551;SDS011;15752;49.560;8.708;2022-12-29T10:11:13;3.23;;;1.70;;
28551;SDS011;15752;49.560;8.708;2022-12-29T10:13:59;3.23;;;1.33;;
28551;SDS011;15752;49.560;8.708;2022-12-29T10:16:43;1.80;;;1.10;;
28551;SDS011;15752;49.560;8.708;2022-12-29T10:19:23;1.50;;;1.00;;
28551;SDS011;15752;49.560;8.708;2022-12-29T10:22:25;2.10;;;1.20;;
28551;SDS011;15752;49.560;8.708;2022-12-29T10:25:19;2.33;;;1.10;;
28551;SDS011;15752;49.560;8.708;2022-12-29T10:27:57;1.33;;;0.93;;
28551;SDS011;15752;49.560;8.708;2022-12-29T10:30:31;1.47;;;1.20;;
28551;SDS011;15752;49.560;8.708;2022-12-29T10:33:04;2.40;;;1.20;;
28551;SDS011;15752;49.560;8.708;2022-12-29T10:35:39;1.40;;;1.30;;
28551;SDS011;15752;49.560;8.708;2022-12-29T10:38:15;3.10;;;1.10;;
28551;SDS011;15752;49.560;8.708;2022-12-29T10:40:59;2.47;;;2.27;;
28551;SDS011;15752;49.560;8.708;2022-12-29T10:43:37;5.57;;;4.67;;
28551;SDS011;15752;49.560;8.708;2022-12-29T10:46:17;3.70;;;3.00;;
28551;SDS011;15752;49.560;8.708;2022-12-29T10:48:49;5.10;;;3.67;;
28551;SDS011;15752;49.560;8.708;2022-12-29T10:51:20;5.90;;;4.60;;
28551;SDS011;15752;49.560;8.708;2022-12-29T10:53:51;4.90;;;3.67;;
28551;SDS011;15752;49.560;8.708;2022-12-29T10:56:28;9.40;;;5.60;;
28551;SDS011;15752;49.560;8.708;2022-12-29T10:59:02;11.97;;;7.37;;
28551;SDS011;15752;49.560;8.708;2022-12-29T11:01:42;9.47;;;5.53;;
28551;SDS011;15752;49.560;8.708;2022-12-29T11:07:15;9.03;;;5.87;;
28551;SDS011;15752;49.560;8.708;2022-12-29T11:09:53;8.47;;;5.50;;
28551;SDS011;15752;49.560;8.708;2022-12-29T11:12:25;7.60;;;4.00;;
28551;SDS011;15752;49.560;8.708;2022-12-29T11:15:07;7.00;;;4.33;;
28551;SDS011;15752;49.560;8.708;2022-12-29T11:17:46;4.53;;;2.90;;
28551;SDS011;15752;49.560;8.708;2022-12-29T11:20:24;5.70;;;4.00;;
28551;SDS011;15752;49.560;8.708;2022-12-29T11:22:58;5.53;;;5.07;;
28551;SDS011;15752;49.560;8.708;2022-12-29T11:25:27;5.07;;;3.80;;
28551;SDS011;15752;49.560;8.708;2022-12-29T11:27:58;4.93;;;4.30;;
28551;SDS011;15752;49.560;8.708;2022-12-29T11:30:41;3.40;;;3.10;;
28551;SDS011;15752;49.560;8.708;2022-12-29T11:33:10;4.47;;;2.47;;
28551;SDS011;15752;49.560;8.708;2022-12-29T11:35:40;3.00;;;2.37;;
28551;SDS011;15752;49.560;8.708;2022-12-29T11:38:16;3.53;;;3.23;;
28551;SDS011;15752;49.560;8.708;2022-12-29T11:40:49;4.00;;;2.70;;
28551;SDS011;15752;49.560;8.708;2022-12-29T11:43:20;2.77;;;2.03;;
28551;SDS011;15752;49.560;8.708;2022-12-29T11:45:56;5.10;;;4.60;;
28551;SDS011;15752;49.560;8.708;2022-12-29T11:48:24;3.40;;;2.43;;
28551;SDS011;15752;49.560;8.708;2022-12-29T11:50:59;1.80;;;1.60;;
28551;SDS011;15752;49.560;8.708;2022-12-29T11:53:28;2.70;;;1.60;;
28551;SDS011;15752;49.560;8.708;2022-12-29T11:56:04;2.23;;;1.53;;
28551;SDS011;15752;49.560;8.708;2022-12-29T11:58:38;2.83;;;2.53;;
28551;SDS011;15752;49.560;8.708;2022-12-29T12:01:07;3.27;;;1.40;;
28551;SDS011;15752;49.560;8.708;2022-12-29T12:03:44;3.20;;;2.07;;
28551;SDS011;15752;49.560;8.708;2022-12-29T12:06:18;3.17;;;2.40;;
28551;SDS011;15752;49.560;8.708;2022-12-29T12:08:51;2.40;;;1.57;;
28551;SDS011;15752;49.560;8.708;2022-12-29T12:11:25;3.13;;;2.33;;
28551;SDS011;15752;49.560;8.708;2022-12-29T12:14:04;3.60;;;2.63;;
28551;SDS011;15752;49.560;8.708;2022-12-29T12:17:16;4.67;;;2.30;;
28551;SDS011;15752;49.560;8.708;2022-12-29T12:19:53;7.77;;;5.20;;
28551;SDS011;15752;49.560;8.708;2022-12-29T12:22:29;9.50;;;5.47;;
28551;SDS011;15752;49.560;8.708;2022-12-29T12:25:03;2.60;;;1.97;;
28551;SDS011;15752;49.560;8.708;2022-12-29T12:27:43;3.27;;;1.67;;
28551;SDS011;15752;49.560;8.708;2022-12-29T12:30:33;2.90;;;1.60;;
28551;SDS011;15752;49.560;8.708;2022-12-29T12:33:18;2.70;;;1.30;;
28551;SDS011;15752;49.560;8.708;2022-12-29T12:36:02;2.13;;;1.77;;
28551;SDS011;15752;49.560;8.708;2022-12-29T12:38:57;3.67;;;2.00;;
28551;SDS011;15752;49.560;8.708;2022-12-29T12:41:38;2.70;;;1.37;;
28551;SDS011;15752;49.560;8.708;2022-12-29T12:44:20;1.77;;;1.33;;
28551;SDS011;15752;49.560;8.708;2022-12-29T12:47:09;1.73;;;1.60;;
28551;SDS011;15752;49.560;8.708;2022-12-29T12:50:13;1.50;;;1.40;;
28551;SDS011;15752;49.560;8.708;2022-12-29T12:53:26;2.73;;;1.37;;
28551;SDS011;15752;49.560;8.708;2022-12-29T12:56:16;1.00;;;0.90;;
28551;SDS011;15752;49.560;8.708;2022-12-29T12:59:03;1.40;;;0.70;;
28551;SDS011;15752;49.560;8.708;2022-12-29T13:01:46;1.03;;;0.70;;
28551;SDS011;15752;49.560;8.708;2022-12-29T13:04:32;3.30;;;1.67;;
28551;SDS011;15752;49.560;8.708;2022-12-29T13:07:28;2.30;;;1.83;;
28551;SDS011;15752;49.560;8.708;2022-12-29T13:10:13;1.23;;;0.97;;
28551;SDS011;15752;49.560;8.708;2022-12-29T13:13:00;3.47;;;2.10;;
28551;SDS011;15752;49.560;8.708;2022-12-29T13:15:53;1.47;;;0.97;;
28551;SDS011;15752;49.560;8.708;2022-12-29T13:18:42;1.80;;;1.30;;
28551;SDS011;15752;49.560;8.708;2022-12-29T13:21:24;1.93;;;1.77;;
28551;SDS011;15752;49.560;8.708;2022-12-29T13:24:06;2.60;;;2.30;;
28551;SDS011;15752;49.560;8.708;2022-12-29T13:26:44;5.30;;;3.30;;
28551;SDS011;15752;49.560;8.708;2022-12-29T13:29:19;4.87;;;2.17;;
28551;SDS011;15752;49.560;8.708;2022-12-29T13:32:01;3.17;;;1.87;;
28551;SDS011;15752;49.560;8.708;2022-12-29T13:34:52;3.13;;;2.20;;
28551;SDS011;15752;49.560;8.708;2022-12-29T13:37:47;4.10;;;2.10;;
28551;SDS011;15752;49.560;8.708;2022-12-29T13:40:22;2.67;;;1.40;;
28551;SDS011;15752;49.560;8.708;2022-12-29T13:42:53;2.27;;;1.87;;
28551;SDS011;15752;49.560;8.708;2022-12-29T13:45:24;2.03;;;1.60;;
28551;SDS011;15752;49.560;8.708;2022-12-29T13:47:57;2.73;;;1.80;;
28551;SDS011;15752;49.560;8.708;2022-12-29T13:50:33;3.57;;;3.00;;
28551;SDS011;15752;49.560;8.708;2022-12-29T13:53:14;2.40;;;2.00;;
28551;SDS011;15752;49.560;8.708;2022-12-29T13:55:51;1.17;;;0.80;;
28551;SDS011;15752;49.560;8.708;2022-12-29T13:58:27;1.40;;;1.13;;
28551;SDS011;15752;49.560;8.708;2022-12-29T14:01:03;3.80;;;2.70;;
28551;SDS011;15752;49.560;8.708;2022-12-29T14:03:47;1.77;;;1.00;;
28551;SDS011;15752;49.560;8.708;2022-12-29T14:06:20;3.83;;;2.57;;
28551;SDS011;15752;49.560;8.708;2022-12-29T14:08:56;3.47;;;2.20;;
28551;SDS011;15752;49.560;8.708;2022-12-29T14:11:31;2.27;;;1.30;;
28551;SDS011;15752;49.560;8.708;2022-12-29T14:14:10;1.27;;;1.00;;
28551;SDS011;15752;49.560;8.708;2022-12-29T14:16:42;1.53;;;0.70;;
28551;SDS011;15752;49.560;8.708;2022-12-29T14:19:13;4.80;;;1.80;;
28551;SDS011;15752;49.560;8.708;2022-12-29T14:21:50;3.60;;;2.17;;
28551;SDS011;15752;49.560;8.708;2022-12-29T14:24:38;2.00;;;1.63;;
28551;SDS011;15752;49.560;8.708;2022-12-29T14:30:48;2.90;;;2.10;;
28551;SDS011;15752;49.560;8.708;2022-12-29T14:33:20;3.47;;;2.07;;
28551;SDS011;15752;49.560;8.708;2022-12-29T14:35:50;3.30;;;2.30;;
28551;SDS011;15752;49.560;8.708;2022-12-29T14:38:20;2.83;;;1.70;;
28551;SDS011;15752;49.560;8.708;2022-12-29T14:44:09;6.93;;;3.23;;
28551;SDS011;15752;49.560;8.708;2022-12-29T14:46:45;2.63;;;1.63;;
28551;SDS011;15752;49.560;8.708;2022-12-29T14:49:25;11.57;;;6.87;;
28551;SDS011;15752;49.560;8.708;2022-12-29T14:52:12;5.90;;;2.80;;
28551;SDS011;15752;49.560;8.708;2022-12-29T14:54:51;4.40;;;1.67;;
28551;SDS011;15752;49.560;8.708;2022-12-29T14:58:00;3.07;;;2.10;;
28551;SDS011;15752;49.560;8.708;2022-12-29T15:00:39;11.33;;;7.40;;
28551;SDS011;15752;49.560;8.708;2022-12-29T15:03:12;6.70;;;3.90;;
28551;SDS011;15752;49.560;8.708;2022-12-29T15:05:48;4.13;;;1.70;;
28551;SDS011;15752;49.560;8.708;2022-12-29T15:08:20;1.70;;;1.20;;
28551;SDS011;15752;49.560;8.708;2022-12-29T15:10:53;1.70;;;1.07;;
28551;SDS011;15752;49.560;8.708;2022-12-29T15:13:32;1.20;;;1.00;;
28551;SDS011;15752;49.560;8.708;2022-12-29T15:16:03;1.70;;;1.20;;
28551;SDS011;15752;49.560;8.708;2022-12-29T15:18:32;2.27;;;1.60;;
28551;SDS011;15752;49.560;8.708;2022-12-29T15:21:02;2.87;;;1.60;;
28551;SDS011;15752;49.560;8.708;2022-12-29T15:23:34;17.87;;;8.93;;
28551;SDS011;15752;49.560;8.708;2022-12-29T15:26:05;15.50;;;8.57;;
28551;SDS011;15752;49.560;8.708;2022-12-29T15:28:40;11.87;;;5.80;;
28551;SDS011;15752;49.560;8.708;2022-12-29T15:31:11;11.33;;;5.63;;
28551;SDS011;15752;49.560;8.708;2022-12-29T15:33:42;5.00;;;3.00;;
28551;SDS011;15752;49.560;8.708;2022-12-29T15:36:18;6.93;;;3.40;;
28551;SDS011;15752;49.560;8.708;2022-12-29T15:38:48;5.00;;;3.10;;
28551;SDS011;15752;49.560;8.708;2022-12-29T15:41:25;5.57;;;3.30;;
28551;SDS011;15752;49.560;8.708;2022-12-29T15:44:23;4.47;;;2.50;;
28551;SDS011;15752;49.560;8.708;2022-12-29T15:46:56;4.13;;;2.40;;
28551;SDS011;15752;49.560;8.708;2022-12-29T15:49:25;5.83;;;3.30;;
28551;SDS011;15752;49.560;8.708;2022-12-29T15:51:57;2.83;;;2.43;;
28551;SDS011;15752;49.560;8.708;2022-12-29T15:54:31;3.13;;;2.00;;
28551;SDS011;15752;49.560;8.708;2022-12-29T15:57:00;3.13;;;1.70;;
28551;SDS011;15752;49.560;8.708;2022-12-29T15:59:30;2.40;;;1.70;;
28551;SDS011;15752;49.560;8.708;2022-12-29T16:02:01;2.30;;;1.80;;
28551;SDS011;15752;49.560;8.708;2022-12-29T16:04:37;2.43;;;1.63;;